Pagrindinis puslapis
METAR-TAF:

METAR-TAF

Oro uostai :

Kerteh, Malaizija

platuma: 04-32-15N, ilguma: 103-25-36E, Aukštis: 5 m

Dabartinis oras

Ataskaita buvo paskelbta 1 valandą ir 18 minutes, ne 07:00 UTC
Vėjas 11 kt iš Šiaurės/Šiaurės Rytų, svyruoja nuo Šiaurės/Šiaurės Vakarų ir Rytų/Šiaurės Rytų
Temperatūra 30°C
Drėgmė 70%
Slėgis 1012 hPa
Matomumas: 9000 m
Išsisklaidę debesys ne aukštis 1500 ft

METAR: WMKE 230700Z 03011KT 330V070 9000 SCT015 30/24 Q1012

Laikas: 16:18 (08:18 UTC)

Prognozė

Ataskaita buvo paskelbta 3 valandos ir 18 minutes, ne 05:00 UTC
Prognozė galioja nuo 23 metu 06 UTC su 24 metu 06 UTC
Vėjas 8 kt iš Šiaurės Rytų
Matomumas 10 km arba daugiau
Išsisklaidę debesys ne aukštis 1400 ft
Laikinai
nuo 23 metu 09 UTC su 23 metu 12 UTC
Matomumas: 7000 m
Mažai debesys ne aukštis 400 ft
lietus

TAF: WMKE 230500Z 2306/2406 04008KT 9999 SCT014 TEMPO 2309/2312 7000 -RA FEW004

Orai ataskaitas ir orų prognozės (METAR, TAF).

turimą stotys yra geltonos ir raudonos taškus žemėlapyje.

Perkelti pele per norėdami pamatyti stoties vardą.

Tada spustelėkite, norėdami matyti oro stebėjimo ir prognozės.

Norėdami pakeisti žemėlapį: spustelėkite ant žalios mygtukų su juodo kryžiaus žemyn,; žalią mygtuką su brūkšneliu, jei norite nutolinti; arba žalių rodyklių gretimoms žemėlapius.


METAR-TAF: